• Join FlightAware (Why Join?)
  • Login
  • US Flag 
03:23AM EDT


 

Airport Tracker/Info


-or-


 

Live Flight TrackerFlight Track Log ✈ ASH3751 ✈ 10-Jun-2013 ✈ KORD - KALB

Flight Track Log - Related Links

Times and Time Zones

All times are in EDT time to prevent confusion due to time zone crossing. See the ASH3751 flight status page for this flight to view local times or setup timezone preferences in your user account.

Time Position Orientation Groundspeed Altitude Reporting Facility
EDT Latitude Longitude Course Direction KTS MPH feet Rate Location/Type
10:29PM 42.0094 -87.7972 90° East 204 235 3,400  Level Chicago Center
10:30PM 42.0392 -87.7147 64° Northeast 235 270 5,300 2,220 Climbing Chicago Center
10:31PM 42.0736 -87.6211 64° Northeast 273 314 8,000 2,520 Climbing Chicago Center
10:32PM 42.1092 -87.5269 63° Northeast 282 325 10,500 2,340 Climbing Chicago Center
10:33PM 42.1453 -87.4261 64° Northeast 295 339 12,800 2,040 Climbing Chicago Center
10:34PM 42.3001 -85.5443 90° East  Level FlightAware Approximate
10:34PM 42.1836 -87.3236 63° Northeast 305 351 14,700  Level Chicago Center
10:35PM 42.2219 -87.2169 64° Northeast 313 360 16,600 1,440 Climbing Chicago Center
10:36PM 42.2728 -87.0756 64° Northeast 349 402 17,700 1,260 Climbing Chicago Center
10:37PM 42.2842 -86.9306 84° East 388 447 19,300 1,560 Climbing Chicago Center
10:38PM 42.2892 -86.7792 87° East 402 463 20,900 1,440 Climbing Chicago Center
10:39PM 42.2961 -86.6417 86° East 409 471 22,300 1,320 Climbing Chicago Center
10:40PM 42.3028 -86.4628 87° East 418 481 23,700 1,380 Climbing Chicago Center
10:41PM 42.3075 -86.3061 88° East 421 484 25,200 1,200 Climbing Chicago Center
10:42PM 42.3125 -86.1453 88° East 428 493 26,200 900 Climbing Chicago Center
10:43PM 42.3144 -85.9803 89° East 440 506 27,100 1,020 Climbing Chicago Center
10:44PM 42.3119 -85.8139 91° East 446 513 28,300 1,260 Climbing Chicago Center
10:45PM 42.3086 -85.6119 91° East 451 519 29,700 1,140 Climbing Chicago Center
10:46PM 42.3072 -85.4458 91° East 447 514 30,700 840 Climbing Chicago Center
10:47PM 42.3039 -85.2781 91° East 448 516 31,500 780 Climbing Chicago Center
10:48PM 42.3019 -85.1089 91° East 451 519 32,300 720 Climbing Chicago Center
10:49PM 42.2986 -84.9425 91° East 446 513 33,000 420 Climbing Chicago Center
10:50PM 42.2947 -84.7739 92° East 450 518 33,200 420 Climbing Chicago Center
10:51PM 42.2903 -84.6042 92° East 453 521 33,900 840 Climbing Chicago Center
10:52PM 42.2908 -84.4394 90° East 442 509 35,000 600 Climbing Chicago Center
10:53PM 42.3106 -84.2953 79° East 436 502 35,000  Level Cleveland Center
10:54PM 42.3283 -84.1333 82° East 436 502 35,000  Level Cleveland Center
10:55PM 42.3436 -83.9658 83° East 441 507 35,000  Level Cleveland Center
10:56PM 42.3569 -83.7978 84° East 441 507 35,000  Level Cleveland Center
10:57PM 42.3739 -83.6328 82° East 441 507 35,000  Level Cleveland Center
10:58PM 42.3867 -83.4564 84° East 457 526 35,000 960 Level Cleveland Center
10:59PM 42.3972 -83.2853 85° East 457 526 37,000  Climbing Cleveland Center
11:00PM 42.4114 -83.1228 83° East 465 535 35,000 -1,020 Descending Cleveland Center
11:01PM 42.4233 -82.9489 85° East 465 535 35,000  Level Cleveland Center
11:02PM 42.4372 -82.7747 84° East 465 535 35,000  Level Cleveland Center
11:03PM 42.4508 -82.5981 84° East 465 535 35,000  Level Cleveland Center
11:04PM 42.4622 -82.4211 85° East 465 535 35,000  Level Cleveland Center
11:05PM 42.4753 -82.2469 84° East 465 535 35,000  Level Cleveland Center
11:06PM 42.4881 -82.0697 84° East 465 535 35,000  Level Cleveland Center
11:07PM 42.4986 -81.8956 85° East 460 529 35,000  Level Cleveland Center
11:08PM 42.5131 -81.7042 84° East 460 529 35,000 120 Level Cleveland Center
11:09PM 42.5231 -81.5269 86° East 465 535 35,300 600 Climbing Cleveland Center
11:10PM 42.5347 -81.3722 84° East 459 528 36,300 840 Climbing Cleveland Center
11:11PM 42.5461 -81.2061 85° East 454 522 37,000 300 Climbing Cleveland Center
11:12PM 42.5553 -81.0342 86° East 448 516 37,000  Level Cleveland Center
11:13PM 42.5661 -80.8594 85° East 460 529 37,000  Level Cleveland Center
11:14PM 42.5747 -80.6847 86° East 468 539 37,000  Level Cleveland Center
11:15PM 42.5853 -80.4958 86° East 463 533 37,000  Level Cleveland Center
11:16PM 42.5953 -80.3181 86° East 462 532 37,000  Level Cleveland Center
11:17PM 42.6033 -80.1489 86° East 457 526 37,000  Level Cleveland Center
11:18PM 42.6108 -80.0106 86° East 457 526 37,000  Level Cleveland Center
11:19PM 42.6222 -79.8017 86° East 458 527 37,000  Level Cleveland Center
11:20PM 42.6314 -79.6264 86° East 458 527 37,000  Level Cleveland Center
11:21PM 42.6381 -79.4486 87° East 463 533 37,000  Level Cleveland Center
11:22PM 42.6467 -79.2706 86° East 463 533 37,000  Level Cleveland Center
11:23PM 42.6528 -79.0897 87° East 468 539 37,000  Level Cleveland Center
11:24PM 42.6606 -78.9061 87° East 478 550 37,000  Level Cleveland Center
11:25PM 42.6683 -78.7222 87° East 483 556 37,000 -120 Level Cleveland Center
11:26PM 42.6736 -78.5386 88° East 478 550 36,800 -720 Descending Cleveland Center
11:27PM 42.6825 -78.3519 86° East 478 550 35,600 -1,260 Descending Cleveland Center
11:28PM 42.6872 -78.1653 88° East 483 556 34,300 -1,380 Descending Cleveland Center
11:29PM 42.6936 -77.9786 87° East 489 563 32,900 -1,380 Descending Cleveland Center
11:31PM 42.7044 -77.6428 87° East 493 567 30,300 -1,380 Descending Boston Center
11:32PM 42.7089 -77.4481 88° East 493 567 29,000 -660 Descending Boston Center
11:33PM 42.7125 -77.2703 88° East 475 547 29,000  Level Boston Center
11:34PM 42.7178 -77.0925 88° East 475 547 29,000  Level Boston Center
11:35PM 42.7208 -76.9175 89° East 470 541 29,000  Level Boston Center
11:36PM 42.7253 -76.7481 88° East 464 534 29,000  Level Boston Center
11:37PM 42.7275 -76.5728 89° East 459 528 29,000  Level Boston Center
11:38PM 42.7317 -76.3978 88° East 459 528 29,000  Level Boston Center
11:39PM 42.7336 -76.2197 89° East 459 528 29,000  Level Boston Center
11:40PM 42.7372 -76.0475 88° East 459 528 29,000  Level Boston Center
11:41PM 42.7406 -75.8667 89° East 459 528 29,000 -840 Level Boston Center
11:42PM 42.7417 -75.6914 89° East 464 534 27,400 -2,040 Descending Boston Center
11:43PM 42.7422 -75.5161 90° East 464 534 25,000 -2,400 Descending Boston Center
11:44PM 42.7444 -75.3522 89° East 446 513 22,600 -2,400 Descending Boston Center
11:45PM 42.7444 -75.1911 90° East 436 502 20,200 -2,460 Descending Boston Center
11:46PM 42.7481 -75.0358 88° East 424 488 17,700 -2,400 Descending Boston Center
11:47PM 42.7492 -74.8914 89° East 403 464 15,500 -2,100 Descending Boston Center
11:47PM 42.7464 -74.8208 93° East 360 414 14,500 -2,100 Descending Boston Center
11:48PM 42.7478 -74.7531 88° East 368 423 13,400 -1,980 Descending Boston Center
11:48PM 42.7489 -74.6964 88° East 350 403 12,700 -1,740 Descending Boston Center
11:49PM 42.7483 -74.6200 91° East 357 411 11,700 -1,620 Descending Boston Center
11:49PM 42.7494 -74.5608 89° East 355 409 11,100 -720 Descending Boston Center
11:50PM 42.7531 -74.4872 86° East 349 402 11,000 -240 Descending Boston Center
11:50PM 42.7619 -74.4481 73° East 327 376 10,900 -900 Descending Boston Center
11:51PM 42.7800 -74.3778 71° East 320 368 10,100 -1,620 Descending Boston Center
11:51PM 42.7931 -74.3414 64° Northeast 300 345 9,300 -1,920 Descending Boston Center
11:52PM 42.8086 -74.2711 73° East 302 348 8,200 -1,800 Descending Boston Center
11:52PM 42.8197 -74.2292 70° East 293 337 7,500 -1,740 Descending Boston Center
11:53PM 42.8353 -74.1672 71° East 292 336 6,500 -1,800 Descending Boston Center
11:53PM 42.8464 -74.1250 70° East 290 334 5,700 -1,800 Descending Boston Center
11:54PM 42.8619 -74.0603 72° East 286 329 4,700 -1,740 Descending Boston Center
11:54PM 42.8750 -74.0211 66° East 283 326 4,000 -1,320 Descending Boston Center
11:55PM 42.8861 -73.9703 73° East 273 314 3,400 -1,140 Descending Boston Center
11:55PM 42.8950 -73.9364 70° East 209 241 2,900 -900 Descending Boston Center
11:56PM 42.9036 -73.9028 71° East 231 266 2,500 -900 Descending Boston Center
11:56PM 42.9147 -73.8661 68° East 191 220 2,000 -540 Descending Boston Center
11:57PM 42.9067 -73.8261 105° East 189 217 2,000 60 Level Boston Center
11:57PM 42.8903 -73.8172 158° South 173 199 2,100  Climbing Boston Center
11:58PM 42.8672 -73.8111 169° South 139 160 2,000 -120 Descending Boston Center
11:58PM 42.8422 -73.8106 179° South 175 201 2,000 -600 Level Boston Center
11:59PM 42.7986 -73.8097 179° South 156 180 1,200 -840 Descending Boston Center
12:00AM 42.7611 -73.8089 179° South 136 157 400 -840 Descending Boston Center